Aviation Digital Data Service (ADDS)

Output produced by TAFs form (1330 UTC 25 September 2017)
found at http://www.aviationweather.gov/adds/tafs/
 
METAR text: RJCN 250900Z 21002KT 9999 FEW010 BKN020 16/15 Q1011
Conditions at: RJCN (NAKASHIBETSU ARP, JP) observed 0900 UTC 25 September 2017
Temperature: 16.0°C (61°F)
Dewpoint: 15.0°C (59°F) [RH = 94%]
Pressure (altimeter): 29.85 inches Hg (1011.0 mb)
Winds: from the SSW (210 degrees) at 2 MPH (2 knots; 1.0 m/s)
Visibility: 6 or more miles (10+ km)
Ceiling: 2000 feet AGL
Clouds: few clouds at 1000 feet AGL
broken clouds at 2000 feet AGL
Weather: no significant weather observed at this time